createdAt,value
2022-11-02T00:00:52.106Z,38.70
2022-11-02T00:05:53.980Z,42.20
2022-11-02T00:10:55.954Z,43.70
2022-11-02T00:16:02.994Z,42.80
2022-11-02T00:21:05.576Z,43.20
2022-11-02T00:26:07.938Z,37.50
2022-11-02T00:31:09.866Z,36.50
2022-11-02T00:36:13.016Z,35.30
2022-11-02T00:41:15.180Z,36.80
2022-11-02T00:46:17.083Z,35.50
2022-11-02T00:51:19.061Z,35.80
2022-11-02T00:56:20.942Z,36.70
2022-11-02T01:01:22.996Z,35.80
2022-11-02T01:06:24.996Z,38.60
2022-11-02T01:11:26.878Z,38.70
2022-11-02T01:16:29.148Z,41.30
2022-11-02T01:21:30.927Z,37.30
2022-11-02T01:26:33.216Z,41.40
2022-11-02T01:31:35.824Z,38.50
2022-11-02T01:36:38.824Z,40.20
2022-11-02T01:41:41.726Z,38.70
2022-11-02T01:46:47.917Z,41.50
2022-11-02T01:51:58.485Z,40.50
2022-11-02T01:57:09.985Z,41.40
2022-11-02T02:02:19.095Z,38.70
2022-11-02T02:07:24.530Z,42.00
2022-11-02T02:12:28.167Z,41.70
2022-11-02T02:18:01.435Z,39.90
2022-11-02T02:23:42.564Z,39.20
2022-11-02T02:29:00.994Z,42.20
2022-11-02T02:34:20.789Z,41.50
2022-11-02T02:39:47.345Z,41.70
2022-11-02T02:45:04.594Z,42.80
2022-11-02T02:50:15.167Z,44.80
2022-11-02T02:55:23.079Z,42.50
2022-11-02T03:00:25.981Z,43.80
2022-11-02T03:05:32.158Z,44.80
2022-11-02T03:11:05.628Z,45.20
2022-11-02T03:16:14.217Z,45.80
2022-11-02T03:21:49.063Z,42.80
2022-11-02T03:27:18.792Z,46.40
2022-11-02T03:32:27.023Z,46.70
2022-11-02T03:37:48.777Z,43.70
2022-11-02T03:42:53.810Z,44.60
2022-11-02T03:48:02.182Z,48.20
2022-11-02T03:53:13.849Z,43.80
2022-11-02T03:58:15.947Z,53.00
2022-11-02T04:03:19.757Z,52.50
2022-11-02T04:08:34.524Z,54.20
2022-11-02T04:13:57.615Z,55.10
2022-11-02T04:19:19.821Z,51.90
2022-11-02T04:24:41.488Z,56.50
2022-11-02T04:29:43.331Z,56.90
2022-11-02T04:34:45.469Z,53.30
2022-11-02T04:39:47.367Z,54.80
2022-11-02T04:44:49.635Z,53.10
2022-11-02T04:49:55.710Z,55.70
2022-11-02T04:54:58.641Z,61.40
2022-11-02T05:00:01.514Z,57.20
2022-11-02T05:05:06.397Z,53.70
2022-11-02T05:10:09.056Z,54.40
2022-11-02T05:15:11.394Z,58.60
2022-11-02T05:20:13.524Z,53.90
2022-11-02T05:25:15.910Z,59.40
2022-11-02T05:30:17.970Z,53.30
2022-11-02T05:35:20.588Z,52.80
2022-11-02T05:40:22.641Z,52.70
2022-11-02T05:45:25.061Z,53.20
2022-11-02T05:50:27.283Z,55.80
2022-11-02T05:55:29.332Z,48.60
2022-11-02T06:00:31.100Z,54.90
2022-11-02T06:05:33.145Z,54.70
2022-11-02T06:10:35.781Z,53.00
2022-11-02T06:15:37.602Z,57.40
2022-11-02T06:20:39.536Z,57.70
2022-11-02T06:25:41.357Z,57.20
2022-11-02T06:30:43.694Z,54.50
2022-11-02T06:35:47.023Z,53.50
2022-11-02T06:40:56.799Z,52.70
2022-11-02T06:45:59.378Z,49.00
2022-11-02T06:51:01.525Z,52.20
2022-11-02T06:56:03.630Z,51.20
2022-11-02T07:01:07.722Z,53.30
2022-11-02T07:06:13.912Z,53.40
2022-11-02T07:11:16.639Z,54.00
2022-11-02T07:16:18.445Z,53.10
2022-11-02T07:26:27.926Z,47.80
2022-11-02T07:31:29.906Z,51.10
2022-11-02T07:36:32.069Z,44.50
2022-11-02T07:41:35.170Z,41.00
2022-11-02T07:46:37.053Z,35.80
2022-11-02T07:51:38.923Z,42.00
2022-11-02T07:56:40.806Z,39.60
2022-11-02T08:01:42.653Z,38.30
2022-11-02T08:06:44.572Z,41.60
2022-11-02T08:11:46.430Z,39.50
2022-11-02T08:16:52.095Z,36.20
2022-11-02T08:21:56.334Z,38.70
2022-11-02T08:26:58.318Z,39.40
2022-11-02T08:32:01.214Z,36.20
2022-11-02T08:37:03.091Z,36.00
2022-11-02T08:42:04.966Z,35.40
2022-11-02T08:47:09.364Z,35.70
2022-11-02T08:52:11.788Z,33.70
2022-11-02T08:57:13.698Z,34.50
2022-11-02T09:02:15.729Z,33.60
2022-11-02T09:07:18.386Z,32.70
2022-11-02T09:12:20.259Z,28.90
2022-11-02T09:17:22.106Z,27.30
2022-11-02T09:22:23.878Z,24.30
2022-11-02T09:27:25.758Z,23.30
2022-11-02T09:32:27.638Z,23.80
2022-11-02T09:37:29.717Z,21.00
2022-11-02T09:42:55.368Z,18.30
2022-11-02T09:48:17.765Z,17.60
2022-11-02T09:53:47.390Z,18.60
2022-11-02T09:59:00.477Z,19.10
2022-11-02T10:04:15.056Z,16.10
2022-11-02T10:09:42.324Z,16.20
2022-11-02T10:14:56.287Z,17.50
2022-11-02T10:20:02.564Z,14.50
2022-11-02T10:25:07.111Z,12.80
2022-11-02T10:30:21.171Z,10.00
2022-11-02T10:35:45.817Z,8.90
2022-11-02T10:41:34.249Z,8.70
2022-11-02T10:46:55.515Z,8.00
2022-11-02T10:51:57.460Z,8.60
2022-11-02T10:57:00.256Z,8.80
2022-11-02T11:02:07.041Z,9.10
2022-11-02T11:07:17.973Z,7.40
2022-11-02T11:12:37.950Z,6.10
2022-11-02T11:23:20.209Z,5.50
2022-11-02T11:28:38.016Z,6.90
2022-11-02T11:33:52.111Z,7.40
2022-11-02T11:38:58.089Z,6.20
2022-11-02T11:44:02.483Z,7.40
2022-11-02T11:49:05.530Z,5.70
2022-11-02T11:54:23.014Z,6.60
2022-11-02T11:59:44.308Z,7.00
2022-11-02T12:04:46.181Z,7.20
2022-11-02T12:09:58.301Z,6.30
2022-11-02T12:15:26.393Z,6.80
2022-11-02T12:20:56.637Z,7.70
2022-11-02T12:26:14.821Z,7.70
2022-11-02T12:31:22.680Z,7.10
2022-11-02T12:36:30.529Z,7.90
2022-11-02T12:41:40.502Z,7.10
2022-11-02T12:47:23.265Z,7.60
2022-11-02T12:52:54.392Z,8.00
2022-11-02T12:58:04.311Z,7.20
2022-11-02T13:03:14.020Z,7.10
2022-11-02T13:08:22.146Z,8.00
2022-11-02T13:13:56.071Z,6.80
2022-11-02T13:19:02.839Z,7.10
2022-11-02T13:24:11.378Z,7.90
2022-11-02T13:29:33.450Z,9.00
2022-11-02T13:34:40.648Z,7.70
2022-11-02T13:39:47.239Z,7.20
2022-11-02T13:45:15.738Z,8.60
2022-11-02T13:50:22.194Z,8.80
2022-11-02T13:55:33.418Z,9.00
2022-11-02T14:00:44.516Z,9.00
2022-11-02T14:05:56.089Z,8.60
2022-11-02T14:11:26.692Z,8.50
2022-11-02T14:16:50.881Z,9.80
2022-11-02T14:21:59.011Z,10.20
2022-11-02T14:27:01.791Z,14.00
2022-11-02T14:32:10.994Z,14.20
2022-11-02T14:37:34.883Z,12.60
2022-11-02T14:42:48.552Z,12.90
2022-11-02T14:47:58.209Z,13.40
2022-11-02T14:53:06.238Z,13.50
2022-11-02T14:58:20.394Z,14.50
2022-11-02T15:03:25.391Z,13.50
2022-11-02T15:08:32.090Z,13.40
2022-11-02T15:13:36.990Z,14.10
2022-11-02T15:18:40.685Z,12.20
2022-11-02T15:23:48.261Z,15.30
2022-11-02T15:28:51.572Z,13.70
2022-11-02T15:34:00.000Z,12.70
2022-11-02T15:39:06.646Z,12.80
2022-11-02T15:44:42.735Z,12.50
2022-11-02T15:50:14.850Z,12.70
2022-11-02T15:55:26.563Z,9.60
2022-11-02T16:00:31.611Z,14.70
2022-11-02T16:05:45.325Z,13.50
2022-11-02T16:10:48.163Z,9.80
2022-11-02T16:15:50.457Z,7.40
2022-11-02T16:20:55.915Z,8.00
2022-11-02T16:26:00.048Z,8.20
2022-11-02T16:31:10.936Z,8.70
2022-11-02T16:36:22.522Z,9.60
2022-11-02T16:41:30.040Z,9.10
2022-11-02T16:51:52.346Z,8.70
2022-11-02T16:56:59.031Z,9.00
2022-11-02T17:02:02.553Z,9.00
2022-11-02T17:07:22.343Z,8.70
2022-11-02T17:12:33.741Z,10.80
2022-11-02T17:17:38.901Z,14.50
2022-11-02T17:23:03.096Z,29.40
2022-11-02T17:28:33.955Z,15.20
2022-11-02T17:33:35.830Z,14.30
2022-11-02T17:38:38.633Z,12.90
2022-11-02T17:43:40.731Z,50.90
2022-11-02T17:48:42.581Z,23.40
2022-11-02T17:53:44.386Z,19.60
2022-11-02T17:58:46.345Z,23.10
2022-11-02T18:03:48.115Z,25.40
2022-11-02T18:09:08.942Z,78.60
2022-11-02T18:14:16.996Z,51.40
2022-11-02T18:19:19.073Z,36.90
2022-11-02T18:24:20.924Z,60.10
2022-11-02T18:29:22.913Z,68.40
2022-11-02T18:34:24.780Z,74.60
2022-11-02T18:39:26.578Z,61.40
2022-11-02T18:44:28.431Z,42.10
2022-11-02T18:49:30.312Z,69.20
2022-11-02T18:54:32.391Z,216.70
2022-11-02T18:59:36.146Z,100.30
2022-11-02T19:04:38.296Z,101.00
2022-11-02T19:09:40.170Z,47.90
2022-11-02T19:14:45.160Z,47.90
2022-11-02T19:19:48.635Z,39.40
2022-11-02T19:24:51.131Z,45.00
2022-11-02T19:29:53.125Z,40.00
2022-11-02T19:34:54.988Z,39.90
2022-11-02T19:39:56.948Z,38.80
2022-11-02T19:44:58.741Z,40.90
2022-11-02T19:50:00.621Z,40.60
2022-11-02T19:55:02.497Z,39.60
2022-11-02T20:00:04.967Z,34.70
2022-11-02T20:05:12.907Z,32.00
2022-11-02T20:10:14.883Z,30.40
2022-11-02T20:15:16.763Z,29.40
2022-11-02T20:20:18.641Z,41.40
2022-11-02T20:25:20.383Z,42.80
2022-11-02T20:30:23.263Z,34.20
2022-11-02T20:35:26.052Z,30.90
2022-11-02T20:40:28.942Z,28.70
2022-11-02T20:45:31.219Z,27.50
2022-11-02T20:50:34.001Z,31.70
2022-11-02T20:55:35.876Z,31.30
2022-11-02T21:00:37.757Z,28.40
2022-11-02T21:05:39.542Z,26.70
2022-11-02T21:10:41.327Z,27.10
2022-11-02T21:15:43.179Z,33.40
2022-11-02T21:20:45.059Z,36.30
2022-11-02T21:25:46.939Z,38.10
2022-11-02T21:30:48.772Z,34.40
2022-11-02T21:35:50.516Z,33.00
2022-11-02T21:40:52.466Z,37.30
2022-11-02T21:45:59.669Z,34.60
2022-11-02T21:51:13.686Z,32.20
2022-11-02T21:56:25.794Z,24.90
2022-11-02T22:01:46.062Z,25.30
2022-11-02T22:06:48.033Z,24.90
2022-11-02T22:12:14.283Z,24.90
2022-11-02T22:17:35.403Z,22.00
2022-11-02T22:22:37.941Z,25.40
2022-11-02T22:27:39.798Z,25.20
2022-11-02T22:32:41.656Z,30.20
2022-11-02T22:38:02.073Z,37.80
2022-11-02T22:43:04.071Z,49.30
2022-11-02T22:48:09.943Z,38.40
2022-11-02T22:53:11.834Z,41.60
2022-11-02T22:58:13.658Z,39.40
2022-11-02T23:03:15.560Z,37.40
2022-11-02T23:08:18.328Z,35.20
2022-11-02T23:13:20.158Z,37.90
2022-11-02T23:18:41.979Z,36.90
2022-11-02T23:24:13.139Z,33.40
2022-11-02T23:29:33.634Z,34.00
2022-11-02T23:34:35.429Z,34.10
2022-11-02T23:39:49.249Z,36.60
2022-11-02T23:44:51.090Z,30.00
2022-11-02T23:49:52.935Z,28.10
2022-11-02T23:55:13.659Z,29.30
